Terminal Aerodrome Forecast
Issued by NWS

Current Version | Previous Version | Text Only | Print | Product List | Glossary Off
Versions: 1 2 3 4 5 6 7 8 9 10 11 12 13 14 15 16 17 18 19 20 21 22 23 24 25 26

000
FTUS41 KRLX 051153 CCA
TAFCKB
TAF COR
KCKB 051153Z 0512/0612 00000KT 1/4SM FG BKN001
      TEMPO 0512/0513 2SM BR BKN002
     FM051300 09003KT 3SM BR SCT002 SCT150
     FM051330 VRB03KT P6SM SCT200
     FM052000 VRB03KT P6SM VCSH BKN100
     FM060300 00000KT 6SM BR BKN070
     FM061100 00000KT 3SM BR OVC045=

USA.gov is the U.S. government's official web portal to all federal, state and local government web resources and services.